createdAt,value
2023-01-26T00:01:10.484Z,1.00
2023-01-26T00:03:37.458Z,1.00
2023-01-26T00:06:07.909Z,1.00
2023-01-26T00:08:38.502Z,1.00
2023-01-26T00:11:06.078Z,1.00
2023-01-26T00:13:33.504Z,1.00
2023-01-26T00:16:00.655Z,1.00
2023-01-26T00:18:27.379Z,1.00
2023-01-26T00:20:57.943Z,1.00
2023-01-26T00:23:25.021Z,1.00
2023-01-26T00:25:52.005Z,1.00
2023-01-26T00:28:28.349Z,1.00
2023-01-26T00:31:02.140Z,1.00
2023-01-26T00:33:28.981Z,1.00
2023-01-26T00:35:55.882Z,1.00
2023-01-26T00:38:22.535Z,1.00
2023-01-26T00:41:00.642Z,1.00
2023-01-26T00:43:27.339Z,1.00
2023-01-26T00:45:53.955Z,1.00
2023-01-26T00:48:22.468Z,0.90
2023-01-26T00:50:50.646Z,1.00
2023-01-26T00:53:17.326Z,0.90
2023-01-26T00:55:43.952Z,1.00
2023-01-26T00:58:10.769Z,1.00
2023-01-26T01:00:38.847Z,1.00
2023-01-26T01:03:06.338Z,1.00
2023-01-26T01:05:33.404Z,1.10
2023-01-26T01:08:00.061Z,1.00
2023-01-26T01:10:27.639Z,1.00
2023-01-26T01:12:54.619Z,1.00
2023-01-26T01:15:21.288Z,1.00
2023-01-26T01:17:48.306Z,1.00
2023-01-26T01:20:15.009Z,1.00
2023-01-26T01:22:41.642Z,1.00
2023-01-26T01:25:08.664Z,1.00
2023-01-26T01:27:35.317Z,1.00
2023-01-26T01:30:07.512Z,1.00
2023-01-26T01:32:37.455Z,1.00
2023-01-26T01:35:05.573Z,1.00
2023-01-26T01:37:33.597Z,0.90
2023-01-26T01:40:00.339Z,0.90
2023-01-26T01:42:27.243Z,1.00
2023-01-26T01:45:17.239Z,1.00
2023-01-26T01:47:43.974Z,1.10
2023-01-26T01:50:15.323Z,1.10
2023-01-26T01:52:41.980Z,1.00
2023-01-26T01:55:10.215Z,0.90
2023-01-26T01:57:47.602Z,0.90
2023-01-26T02:00:15.919Z,0.90
2023-01-26T02:03:08.906Z,1.00
2023-01-26T02:05:48.930Z,1.00
2023-01-26T02:08:17.202Z,1.00
2023-01-26T02:10:46.677Z,0.90
2023-01-26T02:13:13.909Z,0.90
2023-01-26T02:15:40.650Z,1.00
2023-01-26T02:18:08.164Z,1.00
2023-01-26T02:20:40.959Z,1.10
2023-01-26T02:23:26.394Z,1.00
2023-01-26T02:25:53.015Z,0.90
2023-01-26T02:28:21.811Z,0.80
2023-01-26T02:30:49.043Z,0.80
2023-01-26T02:33:19.612Z,0.80
2023-01-26T02:35:46.425Z,0.80
2023-01-26T02:38:13.109Z,0.90
2023-01-26T02:40:53.560Z,0.90
2023-01-26T02:43:20.300Z,0.90
2023-01-26T02:45:46.999Z,0.90
2023-01-26T02:48:13.617Z,0.90
2023-01-26T02:50:40.272Z,1.00
2023-01-26T02:53:06.955Z,1.00
2023-01-26T02:55:33.561Z,0.90
2023-01-26T02:58:01.719Z,0.90
2023-01-26T03:00:37.100Z,0.90
2023-01-26T03:03:06.412Z,0.90
2023-01-26T03:05:33.079Z,0.90
2023-01-26T03:08:01.098Z,0.90
2023-01-26T03:10:27.701Z,0.90
2023-01-26T03:12:54.626Z,0.90
2023-01-26T03:15:39.780Z,0.90
2023-01-26T03:18:26.890Z,0.90
2023-01-26T03:21:11.990Z,0.80
2023-01-26T03:23:57.248Z,0.90
2023-01-26T03:26:42.263Z,0.90
2023-01-26T03:29:08.904Z,0.90
2023-01-26T03:31:35.537Z,0.90
2023-01-26T03:34:02.162Z,0.90
2023-01-26T03:36:28.756Z,0.90
2023-01-26T03:38:55.384Z,0.80
2023-01-26T03:41:40.715Z,0.80
2023-01-26T03:44:25.810Z,0.90
2023-01-26T03:47:10.854Z,0.80
2023-01-26T03:49:55.979Z,0.80
2023-01-26T03:52:41.004Z,0.80
2023-01-26T03:55:26.637Z,0.90
2023-01-26T03:57:53.267Z,0.80
2023-01-26T04:00:21.522Z,0.80
2023-01-26T04:03:06.505Z,0.80
2023-01-26T04:05:51.688Z,0.80
2023-01-26T04:08:24.100Z,0.80
2023-01-26T04:10:56.608Z,0.80
2023-01-26T04:13:42.487Z,0.70
2023-01-26T04:16:28.664Z,0.70
2023-01-26T04:19:14.058Z,0.80
2023-01-26T04:21:40.718Z,0.80
2023-01-26T04:24:16.672Z,0.80
2023-01-26T04:26:44.268Z,0.80
2023-01-26T04:29:11.946Z,0.80
2023-01-26T04:31:39.212Z,0.80
2023-01-26T04:34:06.494Z,0.80
2023-01-26T04:36:34.364Z,0.80
2023-01-26T04:39:01.093Z,0.80
2023-01-26T04:41:30.521Z,0.70
2023-01-26T04:43:57.127Z,0.70
2023-01-26T04:46:23.821Z,0.80
2023-01-26T04:48:50.497Z,0.70
2023-01-26T04:51:43.187Z,0.80
2023-01-26T04:54:09.861Z,0.80
2023-01-26T04:56:36.518Z,0.80
2023-01-26T04:59:04.438Z,0.90
2023-01-26T05:01:31.236Z,0.80
2023-01-26T05:04:02.022Z,0.80
2023-01-26T05:06:28.745Z,0.90
2023-01-26T05:08:55.532Z,0.90
2023-01-26T05:11:22.207Z,0.90
2023-01-26T05:13:48.907Z,0.90
2023-01-26T05:16:15.715Z,0.90
2023-01-26T05:18:42.568Z,0.80
2023-01-26T05:21:10.483Z,0.90
2023-01-26T05:23:37.548Z,0.80
2023-01-26T05:26:04.504Z,0.90
2023-01-26T05:28:31.088Z,0.90
2023-01-26T05:30:57.817Z,0.90
2023-01-26T05:33:24.536Z,0.90
2023-01-26T05:35:51.844Z,0.80
2023-01-26T05:38:18.566Z,0.80
2023-01-26T05:40:45.270Z,0.80
2023-01-26T05:43:12.699Z,0.80
2023-01-26T05:45:39.923Z,0.80
2023-01-26T05:48:06.801Z,0.80
2023-01-26T05:50:33.437Z,0.80
2023-01-26T05:53:00.682Z,0.80
2023-01-26T05:55:27.395Z,0.80
2023-01-26T05:57:54.007Z,0.80
2023-01-26T06:00:20.978Z,0.80
2023-01-26T06:02:48.702Z,0.80
2023-01-26T06:05:15.493Z,0.80
2023-01-26T06:07:42.115Z,0.80
2023-01-26T06:10:09.346Z,0.80
2023-01-26T06:12:38.529Z,0.80
2023-01-26T06:15:05.843Z,0.80
2023-01-26T06:17:32.528Z,0.90
2023-01-26T06:19:59.219Z,0.80
2023-01-26T06:22:26.028Z,0.80
2023-01-26T06:24:52.620Z,0.80
2023-01-26T06:27:19.313Z,0.80
2023-01-26T06:29:46.200Z,0.80
2023-01-26T06:32:13.338Z,0.80
2023-01-26T06:34:40.479Z,0.70
2023-01-26T06:37:07.693Z,0.80
2023-01-26T06:39:34.345Z,0.70
2023-01-26T06:42:01.106Z,0.80
2023-01-26T06:44:27.711Z,0.70
2023-01-26T06:46:54.296Z,0.80
2023-01-26T06:49:20.998Z,0.70
2023-01-26T06:51:55.606Z,0.70
2023-01-26T06:54:22.344Z,0.80
2023-01-26T06:56:48.981Z,0.80
2023-01-26T06:59:15.802Z,0.80
2023-01-26T07:01:44.379Z,0.80
2023-01-26T07:04:11.172Z,0.80
2023-01-26T07:06:37.834Z,0.80
2023-01-26T07:09:04.813Z,0.80
2023-01-26T07:11:32.457Z,0.80
2023-01-26T07:13:59.339Z,0.80
2023-01-26T07:16:31.940Z,0.80
2023-01-26T07:19:00.202Z,0.80
2023-01-26T07:21:26.930Z,0.80
2023-01-26T07:23:55.199Z,0.70
2023-01-26T07:26:22.134Z,0.80
2023-01-26T07:28:48.806Z,0.80
2023-01-26T07:31:15.584Z,0.80
2023-01-26T07:33:42.326Z,0.80
2023-01-26T07:36:10.961Z,0.70
2023-01-26T07:38:38.160Z,0.70
2023-01-26T07:41:06.267Z,0.70
2023-01-26T07:43:34.135Z,0.70
2023-01-26T07:46:00.769Z,0.70
2023-01-26T07:48:29.802Z,0.80
2023-01-26T07:51:00.401Z,0.80
2023-01-26T07:53:29.197Z,0.80
2023-01-26T07:56:05.847Z,0.80
2023-01-26T07:58:32.591Z,0.80
2023-01-26T08:01:08.382Z,0.90
2023-01-26T08:03:35.466Z,0.90
2023-01-26T08:06:02.210Z,0.90
2023-01-26T08:08:28.988Z,0.90
2023-01-26T08:10:56.279Z,0.90
2023-01-26T08:13:34.397Z,0.90
2023-01-26T08:16:03.540Z,0.90
2023-01-26T08:18:30.745Z,1.00
2023-01-26T08:20:57.600Z,1.00
2023-01-26T08:23:24.372Z,1.00
2023-01-26T08:25:50.985Z,1.00
2023-01-26T08:28:18.871Z,1.00
2023-01-26T08:30:47.141Z,1.00
2023-01-26T08:33:13.904Z,0.90
2023-01-26T08:35:40.543Z,1.00
2023-01-26T08:38:07.184Z,1.00
2023-01-26T08:40:33.826Z,1.00
2023-01-26T08:43:01.602Z,1.00
2023-01-26T08:45:30.873Z,1.00
2023-01-26T08:47:57.843Z,1.00
2023-01-26T08:50:24.912Z,1.00
2023-01-26T08:52:51.571Z,1.00
2023-01-26T08:55:18.244Z,1.10
2023-01-26T08:57:47.050Z,1.10
2023-01-26T09:00:14.331Z,1.10
2023-01-26T09:02:41.172Z,1.00
2023-01-26T09:05:08.292Z,1.10
2023-01-26T09:07:34.895Z,1.10
2023-01-26T09:10:01.653Z,1.10
2023-01-26T09:12:28.346Z,1.10
2023-01-26T09:14:54.947Z,1.10
2023-01-26T09:17:21.674Z,1.20
2023-01-26T09:19:48.343Z,1.10
2023-01-26T09:22:15.127Z,1.10
2023-01-26T09:24:41.758Z,1.10
2023-01-26T09:27:09.095Z,1.10
2023-01-26T09:29:35.752Z,1.00
2023-01-26T09:32:02.381Z,1.10
2023-01-26T09:34:29.128Z,1.10
2023-01-26T09:36:55.780Z,1.10
2023-01-26T09:39:22.390Z,1.20
2023-01-26T09:41:58.214Z,1.20
2023-01-26T09:44:25.932Z,1.20
2023-01-26T09:47:02.280Z,1.20
2023-01-26T09:49:41.197Z,1.20
2023-01-26T09:52:16.074Z,1.20
2023-01-26T09:54:45.059Z,1.20
2023-01-26T09:57:16.381Z,1.20
2023-01-26T09:59:49.222Z,1.20
2023-01-26T10:02:31.266Z,1.20
2023-01-26T10:05:00.737Z,1.20
2023-01-26T10:07:27.515Z,1.00
2023-01-26T10:09:54.191Z,1.10
2023-01-26T10:12:20.993Z,1.20
2023-01-26T10:14:55.382Z,1.30
2023-01-26T10:17:54.904Z,1.30
2023-01-26T10:20:41.787Z,1.20
2023-01-26T10:23:16.356Z,1.20
2023-01-26T10:25:44.391Z,1.20
2023-01-26T10:28:15.524Z,1.30
2023-01-26T10:30:43.306Z,1.40
2023-01-26T10:33:16.273Z,1.40
2023-01-26T10:35:43.109Z,1.40
2023-01-26T10:38:28.644Z,1.40
2023-01-26T10:40:55.925Z,1.30
2023-01-26T10:43:24.461Z,1.40
2023-01-26T10:45:51.156Z,1.30
2023-01-26T10:48:18.140Z,1.30
2023-01-26T10:50:45.843Z,1.40
2023-01-26T10:53:17.333Z,1.40
2023-01-26T10:55:44.026Z,1.40
2023-01-26T10:58:29.352Z,1.50
2023-01-26T11:00:56.708Z,1.50
2023-01-26T11:03:26.922Z,1.50
2023-01-26T11:06:05.670Z,1.50
2023-01-26T11:08:36.303Z,1.50
2023-01-26T11:11:10.575Z,1.50
2023-01-26T11:13:37.391Z,1.50
2023-01-26T11:16:36.573Z,1.50
2023-01-26T11:19:07.617Z,1.50
2023-01-26T11:21:40.294Z,1.50
2023-01-26T11:24:21.183Z,1.50
2023-01-26T11:26:53.999Z,1.50
2023-01-26T11:29:23.680Z,1.50
2023-01-26T11:31:59.324Z,1.40
2023-01-26T11:34:29.001Z,1.40
2023-01-26T11:37:00.375Z,1.40
2023-01-26T11:39:33.093Z,1.40
2023-01-26T11:42:07.352Z,1.40
2023-01-26T11:44:43.277Z,1.40
2023-01-26T11:47:22.502Z,1.30
2023-01-26T11:49:49.072Z,1.30
2023-01-26T11:52:16.440Z,1.40
2023-01-26T11:54:58.470Z,1.30
2023-01-26T11:57:31.294Z,1.30
2023-01-26T12:00:04.160Z,1.30
2023-01-26T12:02:32.426Z,1.30
2023-01-26T12:05:03.270Z,1.40
2023-01-26T12:07:29.835Z,1.40
2023-01-26T12:09:56.562Z,1.40
2023-01-26T12:12:48.603Z,1.50
2023-01-26T12:15:29.761Z,1.40
2023-01-26T12:18:11.199Z,1.30
2023-01-26T12:20:45.549Z,1.30
2023-01-26T12:23:15.291Z,1.30
2023-01-26T12:25:45.347Z,1.20
2023-01-26T12:28:35.399Z,1.20
2023-01-26T12:31:12.827Z,1.20
2023-01-26T12:33:39.812Z,1.40
2023-01-26T12:36:25.472Z,1.30
2023-01-26T12:39:10.457Z,1.30
2023-01-26T12:41:43.214Z,1.20
2023-01-26T12:44:19.038Z,1.20
2023-01-26T12:46:50.585Z,1.20
2023-01-26T12:49:31.031Z,1.50
2023-01-26T12:52:11.102Z,1.50
2023-01-26T12:54:45.178Z,1.40
2023-01-26T12:57:14.913Z,1.30
2023-01-26T12:59:47.949Z,1.30
2023-01-26T13:02:15.469Z,1.10
2023-01-26T13:04:48.644Z,1.10
2023-01-26T13:07:34.167Z,1.10
2023-01-26T13:10:30.426Z,1.00
2023-01-26T13:12:57.077Z,1.00
2023-01-26T13:15:25.392Z,1.00
2023-01-26T13:17:53.372Z,1.00
2023-01-26T13:20:24.642Z,1.00
2023-01-26T13:22:52.262Z,1.00
2023-01-26T13:25:31.507Z,1.10
2023-01-26T13:27:59.638Z,1.10
2023-01-26T13:30:26.842Z,1.10
2023-01-26T13:33:01.242Z,1.20
2023-01-26T13:35:29.495Z,1.10
2023-01-26T13:38:02.337Z,1.10
2023-01-26T13:40:35.112Z,1.10
2023-01-26T13:43:28.267Z,1.00
2023-01-26T13:45:54.903Z,1.00
2023-01-26T13:48:33.515Z,0.90
2023-01-26T13:51:02.261Z,0.90
2023-01-26T13:53:28.839Z,1.00
2023-01-26T13:55:58.550Z,1.00
2023-01-26T13:58:25.547Z,0.80
2023-01-26T14:01:18.700Z,0.90
2023-01-26T14:03:45.771Z,0.90
2023-01-26T14:06:15.371Z,0.80
2023-01-26T14:08:45.580Z,0.90
2023-01-26T14:11:17.080Z,0.90
2023-01-26T14:13:44.029Z,0.90
2023-01-26T14:16:19.691Z,0.90
2023-01-26T14:18:48.188Z,0.80
2023-01-26T14:21:17.875Z,0.80
2023-01-26T14:23:44.713Z,0.80
2023-01-26T14:26:17.456Z,0.90
2023-01-26T14:28:44.349Z,0.90
2023-01-26T14:31:20.070Z,0.90
2023-01-26T14:33:58.632Z,0.80
2023-01-26T14:36:26.930Z,0.70
2023-01-26T14:38:54.412Z,0.70
2023-01-26T14:41:24.609Z,0.70
2023-01-26T14:43:55.981Z,0.70
2023-01-26T14:46:35.174Z,0.70
2023-01-26T14:49:09.273Z,0.80
2023-01-26T14:51:36.839Z,0.70
2023-01-26T14:54:05.318Z,0.70
2023-01-26T14:56:44.314Z,0.70
2023-01-26T14:59:18.855Z,0.70
2023-01-26T15:01:50.783Z,0.70
2023-01-26T15:04:20.421Z,0.70
2023-01-26T15:06:47.159Z,0.60
2023-01-26T15:09:20.532Z,0.70
2023-01-26T15:12:10.828Z,0.70
2023-01-26T15:15:05.262Z,0.70
2023-01-26T15:17:37.885Z,0.70
2023-01-26T15:20:22.987Z,0.70
2023-01-26T15:22:50.779Z,0.70
2023-01-26T15:25:21.407Z,0.70
2023-01-26T15:27:52.252Z,0.60
2023-01-26T15:30:21.871Z,0.60
2023-01-26T15:32:48.509Z,0.60
2023-01-26T15:35:29.918Z,0.60
2023-01-26T15:38:09.357Z,0.60
2023-01-26T15:40:37.458Z,0.60
2023-01-26T15:43:13.312Z,0.60
2023-01-26T15:45:43.549Z,0.60
2023-01-26T15:48:10.164Z,0.50
2023-01-26T15:50:36.813Z,0.60
2023-01-26T15:53:03.397Z,0.50
2023-01-26T15:55:31.451Z,0.50
2023-01-26T15:57:58.339Z,0.50
2023-01-26T16:00:25.085Z,0.60
2023-01-26T16:02:51.724Z,0.50
2023-01-26T16:05:21.480Z,0.50
2023-01-26T16:07:48.302Z,0.50
2023-01-26T16:10:18.079Z,0.50
2023-01-26T16:12:45.529Z,0.60
2023-01-26T16:15:22.242Z,0.60
2023-01-26T16:17:48.926Z,0.60
2023-01-26T16:20:15.695Z,0.60
2023-01-26T16:23:01.617Z,0.60
2023-01-26T16:25:31.310Z,0.60
2023-01-26T16:28:12.251Z,0.60
2023-01-26T16:30:38.963Z,0.60
2023-01-26T16:33:05.648Z,0.60
2023-01-26T16:35:32.353Z,0.60
2023-01-26T16:37:59.133Z,0.60
2023-01-26T16:40:25.760Z,0.60
2023-01-26T16:42:54.379Z,0.60
2023-01-26T16:45:22.549Z,0.60
2023-01-26T16:47:56.213Z,0.60
2023-01-26T16:50:23.979Z,0.60
2023-01-26T16:52:50.998Z,0.60
2023-01-26T16:55:18.861Z,0.60
2023-01-26T16:57:47.667Z,0.70
2023-01-26T17:00:18.811Z,0.60
2023-01-26T17:02:50.622Z,0.70
2023-01-26T17:05:18.321Z,0.70
2023-01-26T17:07:47.145Z,0.70
2023-01-26T17:10:14.745Z,0.70
2023-01-26T17:12:41.594Z,0.70
2023-01-26T17:15:09.944Z,0.60
2023-01-26T17:17:38.825Z,0.60
2023-01-26T17:20:18.468Z,0.60
2023-01-26T17:22:46.231Z,0.60
2023-01-26T17:25:16.164Z,0.50
2023-01-26T17:27:43.588Z,0.50
2023-01-26T17:30:10.690Z,0.50
2023-01-26T17:32:37.413Z,0.50
2023-01-26T17:35:04.187Z,0.50
2023-01-26T17:37:31.545Z,0.50
2023-01-26T17:39:58.288Z,0.50
2023-01-26T17:42:25.833Z,0.50
2023-01-26T17:44:52.567Z,0.50
2023-01-26T17:47:19.211Z,0.50
2023-01-26T17:49:45.861Z,0.50
2023-01-26T17:52:14.322Z,0.50
2023-01-26T17:54:41.328Z,0.50
2023-01-26T17:57:08.282Z,0.50
2023-01-26T17:59:35.171Z,0.50
2023-01-26T18:02:02.117Z,0.50
2023-01-26T18:04:31.170Z,0.50
2023-01-26T18:06:58.112Z,0.50
2023-01-26T18:09:25.715Z,0.60
2023-01-26T18:11:53.323Z,0.60
2023-01-26T18:14:19.943Z,0.60
2023-01-26T18:16:48.194Z,0.60
2023-01-26T18:19:14.892Z,0.60
2023-01-26T18:21:41.498Z,0.60
2023-01-26T18:24:09.708Z,0.60
2023-01-26T18:26:37.743Z,0.60
2023-01-26T18:29:05.165Z,0.60
2023-01-26T18:31:34.999Z,0.50
2023-01-26T18:34:02.418Z,0.60
2023-01-26T18:36:29.383Z,0.70
2023-01-26T18:39:00.307Z,0.70
2023-01-26T18:41:30.602Z,0.60
2023-01-26T18:43:58.464Z,0.60
2023-01-26T18:46:26.335Z,0.60
2023-01-26T18:48:53.761Z,0.60
2023-01-26T18:51:22.017Z,0.60
2023-01-26T18:53:48.961Z,0.70
2023-01-26T18:56:17.072Z,0.70
2023-01-26T18:58:44.856Z,0.70
2023-01-26T19:01:15.760Z,0.70
2023-01-26T19:06:51.178Z,0.70
2023-01-26T19:09:17.849Z,0.60
2023-01-26T19:11:54.004Z,0.70
2023-01-26T19:14:20.751Z,0.70
2023-01-26T19:16:49.071Z,0.70
2023-01-26T19:19:15.870Z,0.70
2023-01-26T19:21:42.580Z,0.70
2023-01-26T19:24:09.347Z,0.70
2023-01-26T19:26:36.506Z,0.70
2023-01-26T19:29:03.652Z,0.70
2023-01-26T19:31:30.757Z,0.70
2023-01-26T19:34:01.314Z,0.70
2023-01-26T19:36:30.681Z,0.70
2023-01-26T19:38:58.742Z,0.70
2023-01-26T19:41:25.485Z,0.60
2023-01-26T19:43:52.286Z,0.60
2023-01-26T19:46:26.199Z,0.70
2023-01-26T19:48:53.165Z,0.70
2023-01-26T19:51:21.325Z,0.70
2023-01-26T19:53:52.527Z,0.70
2023-01-26T19:56:29.549Z,0.70
2023-01-26T20:01:47.027Z,0.70
2023-01-26T20:04:19.382Z,0.70
2023-01-26T20:06:50.141Z,0.70
2023-01-26T20:09:24.947Z,0.70
2023-01-26T20:11:52.608Z,0.70
2023-01-26T20:14:20.563Z,0.60
2023-01-26T20:16:47.249Z,0.60
2023-01-26T20:19:14.007Z,0.60
2023-01-26T20:21:41.064Z,0.60
2023-01-26T20:24:10.373Z,0.60
2023-01-26T20:26:37.019Z,0.60
2023-01-26T20:29:04.421Z,0.60
2023-01-26T20:31:36.315Z,0.60
2023-01-26T20:34:11.573Z,0.50
2023-01-26T20:36:42.696Z,0.50
2023-01-26T20:39:11.604Z,0.50
2023-01-26T20:41:44.456Z,0.50
2023-01-26T20:44:11.271Z,0.50
2023-01-26T20:46:39.327Z,0.50
2023-01-26T20:50:48.503Z,0.50
2023-01-26T20:52:16.972Z,0.50
2023-01-26T20:54:48.777Z,0.50
2023-01-26T20:57:15.694Z,0.50
2023-01-26T21:00:03.822Z,0.50
2023-01-26T21:02:36.584Z,0.50
2023-01-26T21:05:34.109Z,0.50
2023-01-26T21:08:01.061Z,0.60
2023-01-26T21:11:11.279Z,0.60
2023-01-26T21:14:14.131Z,0.60
2023-01-26T21:16:48.410Z,0.60
2023-01-26T21:19:15.193Z,0.60
2023-01-26T21:21:43.408Z,0.60
2023-01-26T21:24:10.803Z,0.60
2023-01-26T21:26:37.450Z,0.60
2023-01-26T21:29:05.453Z,0.60
2023-01-26T21:31:32.933Z,0.70
2023-01-26T21:34:00.216Z,0.60
2023-01-26T21:36:28.215Z,0.60
2023-01-26T21:38:56.738Z,0.60
2023-01-26T21:41:46.791Z,0.60
2023-01-26T21:44:14.586Z,0.70
2023-01-26T21:47:16.248Z,0.60
2023-01-26T21:50:19.662Z,0.60
2023-01-26T21:52:41.239Z,0.60
2023-01-26T21:55:08.031Z,0.60
2023-01-26T21:57:53.399Z,0.60
2023-01-26T22:00:20.095Z,0.60
2023-01-26T22:02:46.981Z,0.60
2023-01-26T22:05:13.832Z,0.60
2023-01-26T22:07:48.276Z,0.60
2023-01-26T22:10:15.530Z,0.60
2023-01-26T22:12:42.188Z,0.60
2023-01-26T22:29:26.165Z,0.50
2023-01-26T22:31:52.920Z,0.60
2023-01-26T22:34:19.588Z,0.60
2023-01-26T22:36:46.225Z,0.60
2023-01-26T22:39:13.851Z,0.60
2023-01-26T22:41:40.624Z,0.60
2023-01-26T22:44:07.584Z,0.60
2023-01-26T22:46:35.936Z,0.50
2023-01-26T22:49:04.670Z,0.50
2023-01-26T22:51:32.278Z,0.60
2023-01-26T22:53:59.100Z,0.50
2023-01-26T22:56:38.253Z,0.60
2023-01-26T22:59:04.871Z,0.60
2023-01-26T23:01:32.696Z,0.50
2023-01-26T23:03:59.716Z,0.50
2023-01-26T23:06:26.812Z,0.50
2023-01-26T23:08:53.821Z,0.50
2023-01-26T23:11:25.093Z,0.50
2023-01-26T23:13:52.719Z,0.50
2023-01-26T23:16:19.728Z,0.50
2023-01-26T23:18:46.417Z,0.50
2023-01-26T23:21:13.223Z,0.50
2023-01-26T23:23:40.897Z,0.50
2023-01-26T23:26:08.090Z,0.50
2023-01-26T23:28:41.965Z,0.50
2023-01-26T23:31:12.812Z,0.50
2023-01-26T23:33:44.359Z,0.40
2023-01-26T23:36:14.455Z,0.40
2023-01-26T23:38:41.316Z,0.40
2023-01-26T23:41:18.514Z,0.40
2023-01-26T23:43:45.160Z,0.50
2023-01-26T23:46:20.620Z,0.50
2023-01-26T23:48:47.286Z,0.40
2023-01-26T23:51:20.036Z,0.40
2023-01-26T23:53:48.341Z,0.40
2023-01-26T23:56:17.099Z,0.40
2023-01-26T23:58:43.858Z,0.40
